createdAt,value
2023-01-01T00:00:02.066Z,10.90
2023-01-01T00:02:38.804Z,12.20
2023-01-01T00:05:10.149Z,10.70
2023-01-01T00:07:37.162Z,10.80
2023-01-01T00:10:23.065Z,7.40
2023-01-01T00:12:50.375Z,9.20
2023-01-01T00:15:17.584Z,8.10
2023-01-01T00:17:44.607Z,9.20
2023-01-01T00:20:13.254Z,7.30
2023-01-01T00:22:54.664Z,10.30
2023-01-01T00:25:22.883Z,8.00
2023-01-01T00:27:49.997Z,7.50
2023-01-01T00:30:17.331Z,7.60
2023-01-01T00:32:54.738Z,7.90
2023-01-01T00:35:23.396Z,8.60
2023-01-01T00:37:50.571Z,9.50
2023-01-01T00:40:18.765Z,9.70
2023-01-01T00:42:45.857Z,8.60
2023-01-01T00:45:20.580Z,8.40
2023-01-01T00:47:48.788Z,8.00
2023-01-01T00:50:15.944Z,7.20
2023-01-01T00:52:43.011Z,8.70
2023-01-01T00:55:11.366Z,8.10
2023-01-01T00:57:38.583Z,8.40
2023-01-01T01:00:07.565Z,6.70
2023-01-01T01:02:34.773Z,8.40
2023-01-01T01:05:03.750Z,10.00
2023-01-01T01:07:34.320Z,7.10
2023-01-01T01:10:01.369Z,9.30
2023-01-01T01:12:28.361Z,7.80
2023-01-01T01:14:55.459Z,8.20
2023-01-01T01:17:22.622Z,10.70
2023-01-01T01:19:50.289Z,9.10
2023-01-01T01:22:20.467Z,8.60
2023-01-01T01:24:50.309Z,9.50
2023-01-01T01:27:17.461Z,8.10
2023-01-01T01:29:44.512Z,8.60
2023-01-01T01:32:12.995Z,7.80
2023-01-01T01:34:40.073Z,9.30
2023-01-01T01:37:07.700Z,7.00
2023-01-01T01:39:34.913Z,7.10
2023-01-01T01:42:03.851Z,9.10
2023-01-01T01:44:56.428Z,7.00
2023-01-01T01:47:28.457Z,8.60
2023-01-01T01:50:02.831Z,8.80
2023-01-01T01:52:33.363Z,8.60
2023-01-01T01:55:02.861Z,8.50
2023-01-01T01:57:30.706Z,7.90
2023-01-01T02:00:05.108Z,7.40
2023-01-01T02:02:41.799Z,10.10
2023-01-01T02:05:10.691Z,8.10
2023-01-01T02:07:39.078Z,6.50
2023-01-01T02:10:07.287Z,8.10
2023-01-01T02:12:34.348Z,8.00
2023-01-01T02:15:01.581Z,7.20
2023-01-01T02:17:39.315Z,7.10
2023-01-01T02:20:31.580Z,9.10
2023-01-01T02:23:17.147Z,8.00
2023-01-01T02:25:59.042Z,7.80
2023-01-01T02:28:45.589Z,7.90
2023-01-01T02:31:23.006Z,8.20
2023-01-01T02:33:51.501Z,6.90
2023-01-01T02:36:19.719Z,8.20
2023-01-01T02:38:49.491Z,6.80
2023-01-01T02:41:22.741Z,7.90
2023-01-01T02:43:49.897Z,10.00
2023-01-01T02:48:44.987Z,9.10
2023-01-01T02:51:30.468Z,8.10
2023-01-01T02:54:06.501Z,7.20
2023-01-01T02:56:41.678Z,7.00
2023-01-01T02:59:36.366Z,8.50
2023-01-01T03:02:12.027Z,6.20
2023-01-01T03:04:51.043Z,6.90
2023-01-01T03:07:26.180Z,5.60
2023-01-01T03:10:02.120Z,7.60
2023-01-01T03:12:40.736Z,8.20
2023-01-01T03:15:16.156Z,7.80
2023-01-01T03:17:51.722Z,6.50
2023-01-01T03:20:23.375Z,5.70
2023-01-01T03:22:54.847Z,6.60
2023-01-01T03:25:25.131Z,5.20
2023-01-01T03:27:57.439Z,7.70
2023-01-01T03:30:24.941Z,7.80
2023-01-01T03:33:03.825Z,8.00
2023-01-01T03:35:36.655Z,6.00
2023-01-01T03:38:07.522Z,7.30
2023-01-01T03:40:38.859Z,5.30
2023-01-01T03:43:11.348Z,7.40
2023-01-01T03:45:42.490Z,7.10
2023-01-01T03:48:10.043Z,6.60
2023-01-01T03:50:50.738Z,5.60
2023-01-01T03:53:27.505Z,6.80
2023-01-01T03:56:02.829Z,7.70
2023-01-01T03:58:37.870Z,6.40
2023-01-01T04:01:10.928Z,6.60
2023-01-01T04:03:40.159Z,6.60
2023-01-01T04:06:08.272Z,6.50
2023-01-01T04:08:37.022Z,6.60
2023-01-01T04:11:28.672Z,6.00
2023-01-01T04:13:55.936Z,7.70
2023-01-01T04:16:23.377Z,8.80
2023-01-01T04:18:50.840Z,7.80
2023-01-01T04:21:17.794Z,6.60
2023-01-01T04:23:44.825Z,9.00
2023-01-01T04:26:16.221Z,7.20
2023-01-01T04:28:44.284Z,7.50
2023-01-01T04:31:11.877Z,8.20
2023-01-01T04:33:38.940Z,7.70
2023-01-01T04:36:08.226Z,7.20
2023-01-01T04:38:35.658Z,5.30
2023-01-01T04:41:04.171Z,8.80
2023-01-01T04:43:31.549Z,6.90
2023-01-01T04:46:03.278Z,7.00
2023-01-01T04:48:31.972Z,8.50
2023-01-01T04:51:01.364Z,6.50
2023-01-01T04:53:30.478Z,6.40
2023-01-01T04:55:57.612Z,6.80
2023-01-01T04:58:24.540Z,5.40
2023-01-01T05:00:53.284Z,7.00
2023-01-01T05:03:20.717Z,6.80
2023-01-01T05:05:51.426Z,6.70
2023-01-01T05:08:18.597Z,9.70
2023-01-01T05:10:45.744Z,6.30
2023-01-01T05:13:12.668Z,5.90
2023-01-01T05:15:40.115Z,7.30
2023-01-01T05:18:07.478Z,9.10
2023-01-01T05:20:34.421Z,8.40
2023-01-01T05:23:01.341Z,6.70
2023-01-01T05:25:28.735Z,6.60
2023-01-01T05:27:55.689Z,7.30
2023-01-01T05:30:22.946Z,8.40
2023-01-01T05:32:50.098Z,5.60
2023-01-01T05:35:20.370Z,4.90
2023-01-01T05:37:52.105Z,5.70
2023-01-01T05:40:19.204Z,6.90
2023-01-01T05:42:47.727Z,6.80
2023-01-01T05:45:15.175Z,6.00
2023-01-01T05:47:42.099Z,5.00
2023-01-01T05:52:36.700Z,6.30
2023-01-01T05:55:04.015Z,5.30
2023-01-01T05:57:32.172Z,7.80
2023-01-01T05:59:59.452Z,9.00
2023-01-01T06:02:26.489Z,6.00
2023-01-01T06:04:53.448Z,7.90
2023-01-01T06:07:20.815Z,5.70
2023-01-01T06:09:48.597Z,8.50
2023-01-01T06:12:15.555Z,9.70
2023-01-01T06:14:42.716Z,6.40
2023-01-01T06:17:09.649Z,6.00
2023-01-01T06:19:36.588Z,7.20
2023-01-01T06:22:03.629Z,6.70
2023-01-01T06:24:36.994Z,6.00
2023-01-01T06:27:07.133Z,5.70
2023-01-01T06:29:34.207Z,6.10
2023-01-01T06:32:01.365Z,7.50
2023-01-01T06:34:28.542Z,6.30
2023-01-01T06:36:57.998Z,4.80
2023-01-01T06:39:28.452Z,7.10
2023-01-01T06:41:55.500Z,8.90
2023-01-01T06:44:22.419Z,8.30
2023-01-01T06:46:49.501Z,6.70
2023-01-01T06:49:16.896Z,7.40
2023-01-01T06:51:45.212Z,6.50
2023-01-01T06:54:13.221Z,7.60
2023-01-01T06:56:40.803Z,6.50
2023-01-01T06:59:08.139Z,5.00
2023-01-01T07:01:39.956Z,8.00
2023-01-01T07:04:15.990Z,5.70
2023-01-01T07:06:43.690Z,8.80
2023-01-01T07:09:11.422Z,5.80
2023-01-01T07:11:38.805Z,6.40
2023-01-01T07:14:05.863Z,6.80
2023-01-01T07:16:33.150Z,6.00
2023-01-01T07:19:01.330Z,5.80
2023-01-01T07:21:33.918Z,7.60
2023-01-01T07:24:02.431Z,5.50
2023-01-01T07:26:31.265Z,8.20
2023-01-01T07:29:06.290Z,7.60
2023-01-01T07:31:34.862Z,9.10
2023-01-01T07:34:01.871Z,8.30
2023-01-01T07:36:29.304Z,7.40
2023-01-01T07:38:56.400Z,8.90
2023-01-01T07:41:23.401Z,10.70
2023-01-01T07:43:50.380Z,7.30
2023-01-01T07:46:19.101Z,6.40
2023-01-01T07:48:46.378Z,6.60
2023-01-01T07:51:13.444Z,5.20
2023-01-01T07:53:40.510Z,10.70
2023-01-01T07:56:08.834Z,7.00
2023-01-01T07:58:35.846Z,6.50
2023-01-01T08:01:03.066Z,8.00
2023-01-01T08:03:30.260Z,8.00
2023-01-01T08:05:57.330Z,6.60
2023-01-01T08:08:24.772Z,10.20
2023-01-01T08:10:51.849Z,6.70
2023-01-01T08:13:18.920Z,6.70
2023-01-01T08:15:45.996Z,6.40
2023-01-01T08:18:13.149Z,7.90
2023-01-01T08:20:40.160Z,9.20
2023-01-01T08:23:07.782Z,6.60
2023-01-01T08:25:34.959Z,9.90
2023-01-01T08:28:02.001Z,5.60
2023-01-01T08:30:29.693Z,5.30
2023-01-01T08:32:56.785Z,8.70
2023-01-01T08:35:23.708Z,9.30
2023-01-01T08:37:50.944Z,7.20
2023-01-01T08:40:17.863Z,7.50
2023-01-01T08:42:44.798Z,7.80
2023-01-01T08:45:13.258Z,8.50
2023-01-01T08:47:40.392Z,8.50
2023-01-01T08:50:08.816Z,6.30
2023-01-01T08:52:35.870Z,9.20
2023-01-01T08:55:02.921Z,9.00
2023-01-01T08:57:32.877Z,9.70
2023-01-01T09:00:00.161Z,9.20
2023-01-01T09:02:27.341Z,9.10
2023-01-01T09:04:54.846Z,10.50
2023-01-01T09:07:21.932Z,10.00
2023-01-01T09:09:48.820Z,10.10
2023-01-01T09:12:18.087Z,6.70
2023-01-01T09:14:48.303Z,9.30
2023-01-01T09:17:15.425Z,8.70
2023-01-01T09:19:42.534Z,8.70
2023-01-01T09:22:11.685Z,7.30
2023-01-01T09:24:39.029Z,8.60
2023-01-01T09:27:06.410Z,8.30
2023-01-01T09:29:33.511Z,11.70
2023-01-01T09:32:00.643Z,4.80
2023-01-01T09:34:28.228Z,13.60
2023-01-01T09:36:55.390Z,9.80
2023-01-01T09:39:22.327Z,8.70
2023-01-01T09:42:03.249Z,7.40
2023-01-01T09:44:51.139Z,10.90
2023-01-01T09:47:27.326Z,9.20
2023-01-01T09:49:57.004Z,14.90
2023-01-01T09:52:24.335Z,7.90
2023-01-01T09:54:58.192Z,12.80
2023-01-01T09:57:32.958Z,9.00
2023-01-01T10:00:00.657Z,9.50
2023-01-01T10:02:41.494Z,7.90
2023-01-01T10:05:18.219Z,8.20
2023-01-01T10:07:51.720Z,10.30
2023-01-01T10:10:32.504Z,13.60
2023-01-01T10:13:08.731Z,9.30
2023-01-01T10:15:39.184Z,6.20
2023-01-01T10:18:18.809Z,9.20
2023-01-01T10:20:52.858Z,10.40
2023-01-01T10:23:24.277Z,8.80
2023-01-01T10:25:51.223Z,15.10
2023-01-01T10:28:25.125Z,11.00
2023-01-01T10:30:54.018Z,10.70
2023-01-01T10:33:21.127Z,11.50
2023-01-01T10:35:50.998Z,14.30
2023-01-01T10:38:23.917Z,7.30
2023-01-01T10:40:51.928Z,12.90
2023-01-01T10:43:18.980Z,10.20
2023-01-01T10:45:50.240Z,7.90
2023-01-01T10:48:19.951Z,8.70
2023-01-01T10:50:53.069Z,6.20
2023-01-01T10:53:25.977Z,13.10
2023-01-01T10:56:00.047Z,8.40
2023-01-01T10:58:38.358Z,12.60
2023-01-01T11:01:07.200Z,8.80
2023-01-01T11:03:34.985Z,10.20
2023-01-01T11:06:08.180Z,10.30
2023-01-01T11:08:36.986Z,14.90
2023-01-01T11:11:05.512Z,11.70
2023-01-01T11:13:33.786Z,13.30
2023-01-01T11:16:02.972Z,10.50
2023-01-01T11:18:36.126Z,8.50
2023-01-01T11:21:04.830Z,9.60
2023-01-01T11:23:35.001Z,14.10
2023-01-01T11:26:06.223Z,15.40
2023-01-01T11:28:35.222Z,10.70
2023-01-01T11:31:06.387Z,10.30
2023-01-01T11:33:36.904Z,10.70
2023-01-01T11:36:05.691Z,12.20
2023-01-01T11:38:33.017Z,10.90
2023-01-01T11:41:06.826Z,11.60
2023-01-01T11:43:41.171Z,7.80
2023-01-01T11:46:13.282Z,9.90
2023-01-01T11:48:44.927Z,8.90
2023-01-01T11:51:28.910Z,8.40
2023-01-01T11:54:12.179Z,7.40
2023-01-01T11:56:39.953Z,10.90
2023-01-01T11:59:15.399Z,13.00
2023-01-01T12:01:47.199Z,13.10
2023-01-01T12:04:21.129Z,12.10
2023-01-01T12:06:53.843Z,10.50
2023-01-01T12:09:28.786Z,16.80
2023-01-01T12:12:05.661Z,12.40
2023-01-01T12:17:11.021Z,11.80
2023-01-01T12:19:43.003Z,12.70
2023-01-01T12:22:17.226Z,11.50
2023-01-01T12:24:45.171Z,8.80
2023-01-01T12:27:25.536Z,11.40
2023-01-01T12:30:02.957Z,12.90
2023-01-01T12:32:40.763Z,13.30
2023-01-01T12:35:19.588Z,10.10
2023-01-01T12:37:55.614Z,12.10
2023-01-01T12:40:45.302Z,11.10
2023-01-01T12:43:19.650Z,6.70
2023-01-01T12:46:15.684Z,10.30
2023-01-01T12:49:24.716Z,8.30
2023-01-01T12:52:02.689Z,10.70
2023-01-01T12:55:03.497Z,10.00
2023-01-01T12:57:33.793Z,12.90
2023-01-01T13:00:03.464Z,14.50
2023-01-01T13:02:34.422Z,8.50
2023-01-01T13:05:06.786Z,8.90
2023-01-01T13:07:40.566Z,11.60
2023-01-01T13:10:19.652Z,8.90
2023-01-01T13:12:47.148Z,11.40
2023-01-01T13:15:48.759Z,8.80
2023-01-01T13:18:28.407Z,8.90
2023-01-01T13:21:02.453Z,9.90
2023-01-01T13:23:50.628Z,7.10
2023-01-01T13:26:43.620Z,13.20
2023-01-01T13:29:35.211Z,10.70
2023-01-01T13:32:07.703Z,12.80
2023-01-01T13:35:05.794Z,11.40
2023-01-01T13:37:44.011Z,13.30
2023-01-01T13:40:50.311Z,9.40
2023-01-01T13:43:36.637Z,8.20
2023-01-01T13:46:14.740Z,10.10
2023-01-01T13:49:16.597Z,12.50
2023-01-01T13:52:05.993Z,16.70
2023-01-01T13:55:16.256Z,15.00
2023-01-01T13:58:07.952Z,9.70
2023-01-01T14:00:49.573Z,10.40
2023-01-01T14:03:19.242Z,8.90
2023-01-01T14:05:50.193Z,11.70
2023-01-01T14:08:31.698Z,7.90
2023-01-01T14:11:00.812Z,6.90
2023-01-01T14:13:30.284Z,10.90
2023-01-01T14:16:01.729Z,11.10
2023-01-01T14:18:35.658Z,8.80
2023-01-01T14:21:03.965Z,13.50
2023-01-01T14:23:34.814Z,12.30
2023-01-01T14:26:05.061Z,10.10
2023-01-01T14:28:33.737Z,10.60
2023-01-01T14:31:08.740Z,10.10
2023-01-01T14:33:38.195Z,10.10
2023-01-01T14:36:08.273Z,11.80
2023-01-01T14:38:37.069Z,11.20
2023-01-01T14:41:14.943Z,11.10
2023-01-01T14:43:43.700Z,13.40
2023-01-01T14:46:15.080Z,8.90
2023-01-01T14:48:46.788Z,8.20
2023-01-01T14:51:16.405Z,9.00
2023-01-01T14:53:45.087Z,12.00
2023-01-01T14:56:22.093Z,11.30
2023-01-01T14:58:50.090Z,13.00
2023-01-01T15:01:23.857Z,8.90
2023-01-01T15:04:02.398Z,9.20
2023-01-01T15:06:30.098Z,9.60
2023-01-01T15:08:57.995Z,9.00
2023-01-01T15:11:29.281Z,13.50
2023-01-01T15:13:58.800Z,9.20
2023-01-01T15:16:26.279Z,9.10
2023-01-01T15:18:57.306Z,10.90
2023-01-01T15:21:37.999Z,12.40
2023-01-01T15:24:12.221Z,11.70
2023-01-01T15:26:45.014Z,12.50
2023-01-01T15:29:17.502Z,9.70
2023-01-01T15:31:48.004Z,9.70
2023-01-01T15:34:32.909Z,12.20
2023-01-01T15:37:10.260Z,11.50
2023-01-01T15:39:48.419Z,11.10
2023-01-01T15:42:31.938Z,9.20
2023-01-01T15:45:08.852Z,11.00
2023-01-01T15:50:21.221Z,12.20
2023-01-01T15:52:55.666Z,12.30
2023-01-01T15:55:24.540Z,12.00
2023-01-01T15:57:53.649Z,9.20
2023-01-01T16:00:27.146Z,10.00
2023-01-01T16:02:57.125Z,10.30
2023-01-01T16:05:26.957Z,10.00
2023-01-01T16:08:02.995Z,7.70
2023-01-01T16:10:32.026Z,10.60
2023-01-01T16:12:59.307Z,11.40
2023-01-01T16:15:26.775Z,11.00
2023-01-01T16:17:54.342Z,9.30
2023-01-01T16:20:22.942Z,11.30
2023-01-01T16:22:50.235Z,9.60
2023-01-01T16:25:20.661Z,11.50
2023-01-01T16:27:47.842Z,9.70
2023-01-01T16:30:16.618Z,12.60
2023-01-01T16:32:43.934Z,9.00
2023-01-01T16:35:14.861Z,7.50
2023-01-01T16:37:43.240Z,11.80
2023-01-01T16:40:14.518Z,8.70
2023-01-01T16:42:41.737Z,10.20
2023-01-01T16:45:13.099Z,10.60
2023-01-01T16:47:40.141Z,10.10
2023-01-01T16:50:08.183Z,11.60
2023-01-01T16:52:40.890Z,11.50
2023-01-01T16:55:11.825Z,8.80
2023-01-01T16:57:40.149Z,11.80
2023-01-01T17:00:09.050Z,10.10
2023-01-01T17:02:36.744Z,11.70
2023-01-01T17:05:04.349Z,10.50
2023-01-01T17:07:31.294Z,12.90
2023-01-01T18:05:56.787Z,14.10
2023-01-01T18:08:23.945Z,13.60
2023-01-01T18:10:57.373Z,12.50
2023-01-01T18:13:24.477Z,12.50
2023-01-01T18:15:51.560Z,14.50
2023-01-01T18:18:18.942Z,14.30
2023-01-01T18:20:46.096Z,15.10
2023-01-01T18:23:13.134Z,13.40
2023-01-01T18:25:40.308Z,12.00
2023-01-01T18:28:10.582Z,10.80
2023-01-01T18:30:37.930Z,16.50
2023-01-01T18:33:05.266Z,14.40
2023-01-01T18:35:32.204Z,15.00
2023-01-01T18:37:59.106Z,12.50
2023-01-01T18:40:27.381Z,14.20
2023-01-01T18:42:59.799Z,14.80
2023-01-01T18:45:27.899Z,18.00
2023-01-01T18:47:56.235Z,18.90
2023-01-01T18:50:27.816Z,12.60
2023-01-01T18:53:01.300Z,12.60
2023-01-01T18:55:28.405Z,13.90
2023-01-01T18:58:01.197Z,13.20
2023-01-01T19:00:33.384Z,13.60
2023-01-01T19:03:02.372Z,21.60
2023-01-01T19:05:32.720Z,16.60
2023-01-01T19:08:15.950Z,17.00
2023-01-01T19:10:46.814Z,18.20
2023-01-01T19:13:23.175Z,16.50
2023-01-01T19:15:53.689Z,17.40
2023-01-01T19:18:23.538Z,17.40
2023-01-01T19:20:57.082Z,14.50
2023-01-01T19:23:26.410Z,13.70
2023-01-01T19:25:54.355Z,13.60
2023-01-01T19:28:33.078Z,18.60
2023-01-01T19:31:00.593Z,16.80
2023-01-01T19:33:28.849Z,17.40
2023-01-01T19:35:56.413Z,14.40
2023-01-01T19:38:23.782Z,12.70
2023-01-01T19:40:50.909Z,16.10
2023-01-01T19:43:17.982Z,13.90
2023-01-01T19:45:44.969Z,12.90
2023-01-01T19:48:12.095Z,14.10
2023-01-01T19:50:39.092Z,13.20
2023-01-01T19:53:06.387Z,16.50
2023-01-01T19:55:33.627Z,15.70
2023-01-01T19:58:00.643Z,17.00
2023-01-01T20:00:28.227Z,16.90
2023-01-01T20:02:55.506Z,18.80
2023-01-01T20:05:22.873Z,22.40
2023-01-01T20:07:50.369Z,18.40
2023-01-01T20:10:18.852Z,17.20
2023-01-01T20:12:46.570Z,20.10
2023-01-01T20:15:15.264Z,16.80
2023-01-01T20:17:42.464Z,18.10
2023-01-01T20:20:11.749Z,17.50
2023-01-01T20:22:40.417Z,19.10
2023-01-01T20:25:08.614Z,21.90
2023-01-01T20:27:56.567Z,21.80
2023-01-01T20:30:23.737Z,17.30
2023-01-01T20:32:50.695Z,17.40
2023-01-01T20:35:38.189Z,17.00
2023-01-01T20:40:30.634Z,19.70
2023-01-01T20:42:57.681Z,19.60
2023-01-01T20:45:24.884Z,19.30
2023-01-01T20:47:51.817Z,18.70
2023-01-01T20:50:18.974Z,18.70
2023-01-01T20:52:46.180Z,17.90
2023-01-01T20:55:13.261Z,16.70
2023-01-01T20:57:40.422Z,18.50
2023-01-01T21:00:11.332Z,17.80
2023-01-01T21:02:38.372Z,17.70
2023-01-01T21:05:06.002Z,16.00
2023-01-01T21:07:33.089Z,19.70
2023-01-01T21:10:00.065Z,17.80
2023-01-01T21:12:27.687Z,19.50
2023-01-01T21:14:57.801Z,18.60
2023-01-01T21:17:29.374Z,15.60
2023-01-01T21:20:00.037Z,19.90
2023-01-01T21:22:27.754Z,18.90
2023-01-01T21:25:05.397Z,19.50
2023-01-01T21:27:43.228Z,18.90
2023-01-01T21:30:14.342Z,23.30
2023-01-01T21:32:43.667Z,22.10
2023-01-01T21:35:23.041Z,20.10
2023-01-01T21:37:52.478Z,20.60
2023-01-01T21:40:35.598Z,18.60
2023-01-01T21:43:18.874Z,18.40
2023-01-01T21:45:47.758Z,19.80
2023-01-01T21:48:18.799Z,20.10
2023-01-01T21:50:48.310Z,19.80
2023-01-01T21:53:18.831Z,22.80
2023-01-01T21:55:54.650Z,26.30
2023-01-01T21:58:41.148Z,22.80
2023-01-01T22:01:18.849Z,19.70
2023-01-01T22:03:46.190Z,20.80
2023-01-01T22:06:16.255Z,19.70
2023-01-01T22:08:45.369Z,18.90
2023-01-01T22:11:22.901Z,18.20
2023-01-01T22:13:50.293Z,21.10
2023-01-01T22:16:18.239Z,18.90
2023-01-01T22:18:45.659Z,21.00
2023-01-01T22:21:18.684Z,18.30
2023-01-01T22:23:47.650Z,22.40
2023-01-01T22:26:19.235Z,18.20
2023-01-01T22:28:48.073Z,20.00
2023-01-01T22:31:23.304Z,18.90
2023-01-01T22:33:52.570Z,20.70
2023-01-01T22:36:22.477Z,17.90
2023-01-01T22:38:49.663Z,18.60
2023-01-01T22:41:17.471Z,16.10
2023-01-01T22:43:47.871Z,16.30
2023-01-01T22:46:24.028Z,16.30
2023-01-01T22:48:57.446Z,16.70
2023-01-01T22:51:28.298Z,15.90
2023-01-01T22:53:55.734Z,17.00
2023-01-01T22:56:22.754Z,16.70
2023-01-01T22:58:56.589Z,15.50
2023-01-01T23:01:24.137Z,15.10
2023-01-01T23:03:51.469Z,15.60
2023-01-01T23:06:18.693Z,19.10
2023-01-01T23:08:45.818Z,19.60
2023-01-01T23:11:12.972Z,17.90
2023-01-01T23:14:00.052Z,19.50
2023-01-01T23:16:27.270Z,18.40
2023-01-01T23:18:54.353Z,21.00
2023-01-01T23:21:27.027Z,18.00
2023-01-01T23:23:56.169Z,17.80
2023-01-01T23:26:23.406Z,17.70
2023-01-01T23:28:50.640Z,20.40
2023-01-01T23:31:25.307Z,18.60
2023-01-01T23:33:53.029Z,18.60
2023-01-01T23:36:20.180Z,21.60
2023-01-01T23:38:47.210Z,20.60
2023-01-01T23:41:14.279Z,20.90
2023-01-01T23:43:43.848Z,17.60
2023-01-01T23:46:11.255Z,16.40
2023-01-01T23:48:38.323Z,17.50
2023-01-01T23:51:06.045Z,17.30
2023-01-01T23:53:33.027Z,17.30
2023-01-01T23:56:00.146Z,17.80
2023-01-01T23:58:27.471Z,17.90
